• Join FlightAware (Why Join?)
  • Login
  • US Flag 
05:41PM EST


 

Airport Tracker/Info


-or-


 

Live Flight TrackerFlight Track Log ✈ N315CK ✈ 20-Jun-2013 ✈ KSBN - KPTK

Flight Track Log - Related Links

Times and Time Zones

All times are in EDT time to prevent confusion due to time zone crossing. See the N315CK flight status page for this flight to view local times or setup timezone preferences in your user account.

Time Position Orientation Groundspeed Altitude Reporting Facility
EDT Latitude Longitude Course Direction KTS MPH feet Rate Location/Type
11:35AM 41.7697 -86.2447 64° Northeast 133 153 4,300  Level Chicago Center
11:36AM 41.7817 -86.1956 72° East 138 159 5,100 720 Climbing Chicago Center
11:37AM 41.8014 -86.1461 62° Northeast 148 170 5,800 720 Climbing Chicago Center
11:38AM 41.8198 -85.9950 65° Northeast  Level Estimated
11:38AM 41.8172 -86.0975 66° East 144 166 6,600  Level Chicago Center
11:39AM 41.8383 -85.9412 65° Northeast  Level Estimated
11:39AM 41.8342 -86.0467 66° East 148 170 7,300  Level Chicago Center
11:40AM 41.8519 -85.9928 66° East 157 181 7,800 420 Climbing Chicago Center
11:41AM 41.8700 -85.9375 66° East 162 186 8,200 420 Climbing Chicago Center
11:42AM 41.8944 -85.8658 65° Northeast 175 201 8,700 480 Climbing Chicago Center
11:43AM 41.9139 -85.8056 67° East 177 204 9,200 480 Climbing Chicago Center
11:44AM 41.9325 -85.7478 67° East 171 197 9,700 120 Climbing Chicago Center
11:45AM 41.9539 -85.6847 65° Northeast 178 205 9,500 -180 Descending Chicago Center
11:46AM 41.9764 -85.6150 67° East 195 224 9,400 -60 Descending Chicago Center
11:47AM 41.9992 -85.5469 66° East 198 228 9,400  Level Chicago Center
11:48AM 42.0264 -85.4636 66° East 202 232 9,400  Level Chicago Center
11:49AM 42.0486 -85.3947 67° East 202 232 9,400  Level Chicago Center
11:50AM 42.0708 -85.3269 66° East 199 229 9,400  Level Chicago Center
11:51AM 42.0931 -85.2583 66° East 200 230 9,400  Level Chicago Center
11:52AM 42.1147 -85.1908 67° East 197 227 9,400  Level Chicago Center
11:53AM 42.1361 -85.1228 67° East 197 227 9,400  Level Chicago Center
11:55AM 42.1581 -85.0558 66° East 196 226 9,400  Level Chicago Center
11:56AM 42.1842 -84.9742 67° East 197 227 9,400  Level Chicago Center
11:57AM 42.2050 -84.9100 66° East 198 228 9,400  Level Chicago Center
11:59AM 42.2115 -84.7816 66° East  Level FlightAware Approximate
12:06PM 42.3451 -84.3720 66° East  Level FlightAware Approximate
12:07PM 42.3641 -84.3133 66° East  Level FlightAware Approximate
12:08PM 42.3830 -84.2546 66° East  Level FlightAware Approximate
12:09PM 42.4019 -84.1958 66° East  Level FlightAware Approximate
12:10PM 42.4210 -84.1372 66° East  Level FlightAware Approximate
12:11PM 42.4420 -84.0798 60° Northeast  Level FlightAware Approximate
12:12PM 42.4658 -84.0244 60° Northeast  Level FlightAware Approximate
12:13PM 42.4876 -83.9677 70° East  Level FlightAware Approximate
12:14PM 42.5041 -83.9075 70° East  Level FlightAware Approximate
12:15PM 42.5205 -83.8473 70° East  Level FlightAware Approximate
12:16PM 42.5382 -83.7878 61° Northeast  Level FlightAware Approximate
12:17PM 42.5608 -83.7314 61° Northeast  Level FlightAware Approximate
12:18PM 42.5779 -83.6717 71° East  Level FlightAware Approximate
12:19PM 42.5959 -83.6123 66° East  Level FlightAware Approximate
12:20PM 42.6155 -83.5538 66° East  Level FlightAware Approximate
12:21PM 42.6350 -83.4952 66° East  Level FlightAware Approximate
12:22PM 42.6500 -83.4353 90° East  Level FlightAware Approximate
12:23PM 42.6500 -83.4167 90° East  Level FlightAware Approximate
12:24PM 42.6656 -83.4205 90° East  Level Estimated
12:25PM 42.6656 -83.4205 90° East  Level Estimated
12:26PM 42.6656 -83.4205 90° East  Level Estimated
12:27PM 42.6656 -83.4205 90° East  Level Estimated
12:28PM 42.6656 -83.4205 90° East  Level Estimated
12:29PM 42.6656 -83.4205 90° East  Level Estimated
12:30PM 42.6656 -83.4205 90° East  Level Estimated
12:31PM 42.6656 -83.4205 90° East  Level Estimated
12:32PM 42.6656 -83.4205 90° East  Level Estimated
12:33PM 42.6656 -83.4205 90° East  Level Estimated
12:34PM 42.6656 -83.4205 90° East  Level Estimated
12:35PM 42.6656 -83.4205 90° East  Level Estimated
12:36PM 42.6656 -83.4205 90° East  Level Estimated
12:37PM 42.6656 -83.4205 90° East  Level Estimated